createdAt,value
2023-04-17T00:01:29.061Z,100.00
2023-04-17T00:06:33.916Z,100.00
2023-04-17T00:11:37.222Z,100.00
2023-04-17T00:16:41.761Z,100.00
2023-04-17T00:21:44.975Z,100.00
2023-04-17T00:26:48.439Z,100.00
2023-04-17T00:31:53.141Z,100.00
2023-04-17T00:36:56.360Z,100.00
2023-04-17T00:41:59.677Z,100.00
2023-04-17T00:47:04.607Z,100.00
2023-04-17T00:52:08.092Z,100.00
2023-04-17T00:57:11.543Z,100.00
2023-04-17T01:02:16.880Z,100.00
2023-04-17T01:07:20.172Z,100.00
2023-04-17T01:12:25.455Z,100.00
2023-04-17T01:17:30.252Z,100.00
2023-04-17T01:22:33.769Z,100.00
2023-04-17T01:27:38.616Z,100.00
2023-04-17T01:32:42.154Z,100.00
2023-04-17T01:37:45.404Z,100.00
2023-04-17T01:42:49.879Z,100.00
2023-04-17T01:47:53.969Z,100.00
2023-04-17T01:52:57.168Z,100.00
2023-04-17T01:58:01.856Z,100.00
2023-04-17T02:03:05.374Z,100.00
2023-04-17T02:08:08.750Z,100.00
2023-04-17T02:13:13.596Z,100.00
2023-04-17T02:18:19.253Z,100.00
2023-04-17T02:23:22.464Z,100.00
2023-04-17T02:28:27.113Z,100.00
2023-04-17T02:33:30.334Z,100.00
2023-04-17T02:38:34.540Z,100.00
2023-04-17T02:43:39.049Z,100.00
2023-04-17T02:48:42.417Z,100.00
2023-04-17T02:53:46.043Z,100.00
2023-04-17T02:58:50.479Z,100.00
2023-04-17T03:03:54.007Z,100.00
2023-04-17T03:08:57.470Z,100.00
2023-04-17T03:14:02.798Z,100.00
2023-04-17T03:19:05.933Z,100.00
2023-04-17T03:24:11.311Z,100.00
2023-04-17T03:29:17.101Z,100.00
2023-04-17T03:34:22.466Z,100.00
2023-04-17T03:39:26.728Z,100.00
2023-04-17T03:44:31.602Z,100.00
2023-04-17T03:49:34.940Z,100.00
2023-04-17T03:54:38.388Z,100.00
2023-04-17T03:59:44.526Z,100.00
2023-04-17T04:04:50.911Z,100.00
2023-04-17T04:09:56.091Z,100.00
2023-04-17T04:15:02.131Z,100.00
2023-04-17T04:20:08.924Z,100.00
2023-04-17T04:25:12.548Z,100.00
2023-04-17T04:30:50.728Z,100.00
2023-04-17T04:36:01.911Z,100.00
2023-04-17T04:41:10.373Z,100.00
2023-04-17T04:46:16.568Z,100.00
2023-04-17T04:51:22.536Z,100.00
2023-04-17T04:56:27.224Z,100.00
2023-04-17T05:01:32.821Z,100.00
2023-04-17T05:06:36.891Z,100.00
2023-04-17T05:11:40.751Z,100.00
2023-04-17T05:16:45.571Z,100.00
2023-04-17T05:21:50.314Z,100.00
2023-04-17T05:26:56.888Z,100.00
2023-04-17T05:32:01.963Z,100.00
2023-04-17T05:37:28.415Z,100.00
2023-04-17T05:42:32.349Z,100.00
2023-04-17T05:47:38.291Z,100.00
2023-04-17T05:52:41.697Z,100.00
2023-04-17T05:57:47.549Z,100.00
2023-04-17T06:02:52.470Z,100.00
2023-04-17T06:08:07.033Z,100.00
2023-04-17T06:13:10.205Z,100.00
2023-04-17T06:18:16.142Z,100.00
2023-04-17T06:23:19.486Z,100.00
2023-04-17T06:28:22.574Z,100.00
2023-04-17T06:33:30.139Z,100.00
2023-04-17T06:38:33.763Z,100.00
2023-04-17T06:43:37.751Z,100.00
2023-04-17T06:48:52.411Z,100.00
2023-04-17T06:53:55.852Z,100.00
2023-04-17T06:58:59.827Z,100.00
2023-04-17T07:04:06.129Z,100.00
2023-04-17T07:09:09.419Z,100.00
2023-04-17T07:14:13.006Z,100.00
2023-04-17T07:19:17.734Z,100.00
2023-04-17T07:24:21.214Z,100.00
2023-04-17T07:29:24.442Z,100.00
2023-04-17T07:34:31.214Z,100.00
2023-04-17T07:39:34.455Z,100.00
2023-04-17T07:44:37.613Z,100.00
2023-04-17T07:49:42.117Z,100.00
2023-04-17T07:54:45.702Z,100.00
2023-04-17T07:59:49.043Z,100.00
2023-04-17T08:04:54.473Z,100.00
2023-04-17T08:09:57.881Z,100.00
2023-04-17T08:15:01.173Z,100.00
2023-04-17T08:20:11.424Z,100.00
2023-04-17T08:25:15.063Z,100.00
2023-04-17T08:30:19.307Z,100.00
2023-04-17T08:35:25.304Z,100.00
2023-04-17T08:40:28.815Z,100.00
2023-04-17T08:45:33.560Z,100.00
2023-04-17T08:50:38.586Z,100.00
2023-04-17T08:55:41.785Z,100.00
2023-04-17T09:00:48.773Z,100.00
2023-04-17T09:05:58.649Z,100.00
2023-04-17T09:11:01.889Z,100.00
2023-04-17T09:16:07.435Z,100.00
2023-04-17T09:21:12.123Z,100.00
2023-04-17T09:26:17.033Z,100.00
2023-04-17T09:31:28.272Z,100.00
2023-04-17T09:36:34.820Z,100.00
2023-04-17T09:41:39.560Z,100.00
2023-04-17T09:46:46.028Z,100.00
2023-04-17T09:51:51.569Z,100.00
2023-04-17T09:56:56.066Z,100.00
2023-04-17T10:01:59.998Z,100.00
2023-04-17T10:07:05.183Z,100.00
2023-04-17T10:12:12.911Z,100.00
2023-04-17T10:17:28.617Z,100.00
2023-04-17T10:22:34.829Z,100.00
2023-04-17T10:27:45.469Z,100.00
2023-04-17T10:33:21.979Z,100.00
2023-04-17T10:38:36.921Z,100.00
2023-04-17T10:43:42.630Z,100.00
2023-04-17T10:48:52.201Z,100.00
2023-04-17T10:53:59.104Z,100.00
2023-04-17T10:59:04.489Z,100.00
2023-04-17T11:04:08.608Z,100.00
2023-04-17T11:09:13.525Z,100.00
2023-04-17T11:14:18.476Z,100.00
2023-04-17T11:19:23.483Z,100.00
2023-04-17T11:24:29.590Z,100.00
2023-04-17T11:29:32.981Z,100.00
2023-04-17T11:34:38.204Z,100.00
2023-04-17T11:39:44.468Z,100.00
2023-04-17T11:44:47.780Z,100.00
2023-04-17T11:49:51.113Z,100.00
2023-04-17T11:54:59.880Z,100.00
2023-04-17T12:00:14.062Z,100.00
2023-04-17T12:05:18.501Z,100.00
2023-04-17T12:10:24.329Z,90.00
2023-04-17T12:15:27.518Z,91.47
2023-04-17T12:20:30.876Z,93.31
2023-04-17T12:25:35.898Z,93.22
2023-04-17T12:30:39.961Z,97.19
2023-04-17T12:35:43.348Z,94.14
2023-04-17T12:40:51.509Z,88.84
2023-04-17T12:45:54.966Z,87.79
2023-04-17T12:50:58.201Z,89.67
2023-04-17T12:56:03.873Z,81.61
2023-04-17T13:01:07.244Z,76.07
2023-04-17T13:06:10.555Z,75.15
2023-04-17T13:11:15.117Z,73.91
2023-04-17T13:16:18.326Z,77.45
2023-04-17T13:21:22.057Z,75.29
2023-04-17T13:26:27.011Z,79.36
2023-04-17T13:31:30.813Z,83.92
2023-04-17T13:36:35.070Z,80.74
2023-04-17T13:41:39.768Z,75.79
2023-04-17T13:46:44.128Z,75.63
2023-04-17T13:51:47.778Z,73.38
2023-04-17T13:56:54.428Z,72.76
2023-04-17T14:02:00.223Z,74.94
2023-04-17T14:07:03.681Z,76.10
2023-04-17T14:12:08.447Z,75.73
2023-04-17T14:17:11.593Z,75.38
2023-04-17T14:22:14.934Z,76.17
2023-04-17T14:27:19.570Z,81.88
2023-04-17T14:32:25.189Z,79.74
2023-04-17T14:37:29.575Z,80.25
2023-04-17T14:42:40.734Z,83.03
2023-04-17T14:47:54.285Z,82.41
2023-04-17T14:52:58.341Z,85.24
2023-04-17T14:58:02.953Z,84.34
2023-04-17T15:03:07.537Z,81.92
2023-04-17T15:08:11.158Z,76.89
2023-04-17T15:13:17.356Z,74.79
2023-04-17T15:18:21.105Z,75.36
2023-04-17T15:23:25.658Z,74.79
2023-04-17T15:28:31.643Z,73.87
2023-04-17T15:33:35.353Z,76.60
2023-04-17T15:38:38.712Z,74.17
2023-04-17T15:43:44.213Z,78.42
2023-04-17T15:48:57.661Z,76.45
2023-04-17T15:54:12.256Z,74.40
2023-04-17T15:59:16.929Z,75.74
2023-04-17T16:04:20.807Z,76.34
2023-04-17T16:09:24.567Z,78.18
2023-04-17T16:14:29.135Z,74.91
2023-04-17T16:19:32.608Z,82.48
2023-04-17T16:24:35.880Z,81.25
2023-04-17T16:29:41.116Z,78.93
2023-04-17T16:34:44.394Z,80.54
2023-04-17T16:39:47.724Z,79.99
2023-04-17T16:44:52.325Z,82.13
2023-04-17T16:49:55.787Z,82.73
2023-04-17T16:54:59.923Z,82.34
2023-04-17T17:00:05.310Z,84.09
2023-04-17T17:05:12.257Z,82.26
2023-04-17T17:10:15.520Z,84.99
2023-04-17T17:15:21.334Z,81.62
2023-04-17T17:20:25.220Z,87.89
2023-04-17T17:25:28.494Z,89.78
2023-04-17T17:30:36.637Z,94.03
2023-04-17T17:35:39.916Z,93.92
2023-04-17T17:40:44.368Z,98.34
2023-04-17T17:45:54.468Z,97.33
2023-04-17T17:51:01.463Z,100.00
2023-04-17T17:56:09.933Z,100.00
2023-04-17T18:01:16.305Z,100.00
2023-04-17T18:06:19.704Z,100.00
2023-04-17T18:11:24.946Z,100.00
2023-04-17T18:16:33.331Z,100.00
2023-04-17T18:21:36.870Z,100.00
2023-04-17T18:26:40.179Z,100.00
2023-04-17T18:31:46.210Z,100.00
2023-04-17T18:36:50.544Z,100.00
2023-04-17T18:41:57.098Z,100.00
2023-04-17T18:47:02.320Z,100.00
2023-04-17T18:52:06.423Z,100.00
2023-04-17T18:57:13.000Z,100.00
2023-04-17T19:02:20.530Z,100.00
2023-04-17T19:07:24.019Z,100.00
2023-04-17T19:12:27.484Z,100.00
2023-04-17T19:17:35.265Z,100.00
2023-04-17T19:22:39.797Z,100.00
2023-04-17T19:27:46.844Z,100.00
2023-04-17T19:32:51.965Z,100.00
2023-04-17T19:37:58.602Z,100.00
2023-04-17T19:43:06.992Z,100.00
2023-04-17T19:48:12.316Z,100.00
2023-04-17T19:53:16.503Z,100.00
2023-04-17T19:58:22.504Z,100.00
2023-04-17T20:03:29.639Z,100.00
2023-04-17T20:08:33.602Z,100.00
2023-04-17T20:13:37.242Z,100.00
2023-04-17T20:18:47.033Z,100.00
2023-04-17T20:23:50.701Z,100.00
2023-04-17T20:28:55.551Z,100.00
2023-04-17T20:34:01.123Z,100.00
2023-04-17T20:39:04.878Z,100.00
2023-04-17T20:44:11.114Z,100.00
2023-04-17T20:49:16.182Z,100.00
2023-04-17T20:54:23.191Z,100.00
2023-04-17T20:59:26.553Z,100.00
2023-04-17T21:04:31.448Z,100.00
2023-04-17T21:09:35.275Z,100.00
2023-04-17T21:14:38.432Z,100.00
2023-04-17T21:19:43.021Z,100.00
2023-04-17T21:24:46.206Z,100.00
2023-04-17T21:29:49.348Z,100.00
2023-04-17T21:34:53.889Z,100.00
2023-04-17T21:39:57.237Z,100.00
2023-04-17T21:45:00.450Z,100.00
2023-04-17T21:50:05.708Z,100.00
2023-04-17T21:55:09.794Z,100.00
2023-04-17T22:00:14.478Z,100.00
2023-04-17T22:05:19.464Z,100.00
2023-04-17T22:10:22.777Z,100.00
2023-04-17T22:15:25.882Z,100.00
2023-04-17T22:20:30.588Z,100.00
2023-04-17T22:25:34.130Z,100.00
2023-04-17T22:30:37.543Z,100.00
2023-04-17T22:35:42.111Z,100.00
2023-04-17T22:40:45.328Z,100.00
2023-04-17T22:45:48.434Z,100.00
2023-04-17T22:50:52.978Z,100.00
2023-04-17T22:56:02.947Z,100.00
2023-04-17T23:01:06.324Z,100.00
2023-04-17T23:06:11.245Z,100.00
2023-04-17T23:11:14.325Z,100.00
2023-04-17T23:16:18.016Z,100.00
2023-04-17T23:21:22.739Z,100.00
2023-04-17T23:26:26.071Z,100.00
2023-04-17T23:31:29.437Z,100.00
2023-04-17T23:36:33.930Z,100.00
2023-04-17T23:41:37.414Z,100.00
2023-04-17T23:46:40.509Z,100.00
2023-04-17T23:51:45.128Z,100.00
2023-04-17T23:56:48.395Z,100.00
